Venice, Italy

5:50 PM CEST on September 30, 2014 (GMT +0200)
Venezia | Change Station
CLOSE
Current Station
Personal Weather Station
Location: Dese, Venezia
Elevation: 14 ft
Nearby Weather Stations

Elev 14 ft 45.53 °N, 12.31 °E | Updated 1 minute ago

Clear
Clear
69.2 °F
Feels Like 69.2 °F
N
0.0
Wind Variable Wind from SSW
Gusts 2.0 mph

Today
High -- | Low -- °F
--% Chance of Precip.
Yesterday
High -- | Low -- °F
Precip. -- in
7:07 AM 6:53 PM
Waxing Crescent, 37% visible
Pressure 30.24 in
Visibility -9999.0 miles
Clouds
Dew Point 62 °F
Humidity 77%
Rainfall 0.00 in
Snow Depth Not available.
UV Not available.
Pollen Not available.
Air Quality Not available.
Flu Activity Not available.
METAR LIPZ 301520Z 15005KT CAVOK 21/16 Q1024

More Conditions Fewer Conditions

Pressure 30.24 in
Visibility -9999.0 miles
Clouds
Dew Point 62 °F
Humidity 77%
Rainfall 0.00 in
Snow Depth Not available.
UV Not available.
Pollen Not available.
Air Quality Not available.
Flu Activity Not available.
METAR LIPZ 301520Z 15005KT CAVOK 21/16 Q1024

More Conditions Fewer Conditions

10-Day Weather Forecast

Almanac

Astronomy

Sep. 30, 2014 Rise Set
Actual Time 7:07 AM CEST 6:53 PM CEST
Civil Twilight 6:37 AM CEST 7:22 PM CEST
Nautical Twilight 6:03 AM CEST 7:57 PM CEST
Astronomical Twilight 5:28 AM CEST 8:32 PM CEST
Moon 1:13 PM CEST 10:53 PM CEST
Length of Visible Light 12h 45m
Length of Day
11h 46m
Tomorrow will be 3m 10s shorter.
Waxing Crescent, 37% of the Moon is Illuminated
Today
Waxing Crescent
Oct 1
First Quarter
Oct 8
Full
Oct 15
Last Quarter
Oct 23
New

Today's Extremes

Country Highs Country Lows

Community

WunderPhotos

Upload Photos

1,757,671 photos uploaded!

Nearby

Snow Depth

Not available.

Earthquake Activity

City Distance Mag. Time & Date
No recent earthquake activity has been reported nearby.
Minimum magnitude displayed is 2.5.

Coastal Water Temperatures

Place Temperature
No Stations Reporting

Nearby Weather Stations